Time;durP1;ratioP1;P1;durP2;ratioP2;P2;SDS_P1;SDS_P2;PMS_P1;PMS_P2;Temp;Humidity;BMP_temperature;BMP_pressure;BME280_temperature;BME280_humidity;BME280_pressure;Samples;Min_cycle;Max_cycle;Signal;HPM_P1;HPM_P2
2022/09/12 00:02:24;;;;;;;;;;;13.70;99.90;;;;;;6190023;23;19923;-76
2022/09/12 00:04:52;;;;;;;;;;;13.70;99.90;;;;;;6189894;23;19966;-77
2022/09/12 00:07:17;;;;;;;;;;;13.70;99.90;;;;;;6240430;23;19920;-77
2022/09/12 00:09:43;;;;;;;;;;;13.60;99.90;;;;;;6189240;23;20355;-78
2022/09/12 00:12:12;;;;;;;;;;;13.50;99.90;;;;;;6214409;23;19916;-77
2022/09/12 00:14:40;;;;;;;;;;;13.80;99.90;;;;;;6214975;23;19973;-78
2022/09/12 00:17:06;;;;;;;;;;;13.70;99.90;;;;;;6189923;23;19924;-78
2022/09/12 00:19:32;;;;;;;;;;;13.70;99.90;;;;;;6189371;23;20315;-77
2022/09/12 00:22:00;;;;;;;;;;;13.70;99.90;;;;;;6189795;23;20326;-76
2022/09/12 00:24:26;;;;;;;;;;;13.80;99.90;;;;;;6189468;23;20394;-77
2022/09/12 00:26:57;;;;;;;;;;;13.80;99.90;;;;;;6214876;23;19963;-77
2022/09/12 00:29:31;;;;;;;;;;;13.70;99.90;;;;;;6190296;23;19982;-79
2022/09/12 00:31:59;;;;;;;;;;;13.80;99.90;;;;;;6189811;23;19916;-78
2022/09/12 00:34:27;;;;;;;;;;;13.80;99.90;;;;;;6189425;23;19951;-77
2022/09/12 00:36:53;;;;;;;;;;;13.70;99.90;;;;;;6189650;23;20327;-80
2022/09/12 00:39:19;;;;;;;;;;;13.80;99.90;;;;;;6189697;23;19916;-78
2022/09/12 00:41:47;;;;;;;;;;;13.70;99.90;;;;;;6214862;23;20019;-79
2022/09/12 00:44:22;;;;;;;;;;;13.70;99.90;;;;;;6189510;23;19927;-77
2022/09/12 00:46:53;;;;;;;;;;;13.70;99.90;;;;;;6214772;23;19920;-76
2022/09/12 00:49:22;;;;;;;;;;;13.70;99.90;;;;;;6189552;23;19916;-77
2022/09/12 00:51:53;;;;;;;;;;;13.70;99.90;;;;;;6214776;23;19962;-77
2022/09/12 00:54:21;;;;;;;;;;;13.60;99.90;;;;;;6214823;23;19995;-78
2022/09/12 00:56:48;;;;;;;;;;;13.60;99.90;;;;;;6189021;23;20357;-78
2022/09/12 00:59:17;;;;;;;;;;;13.60;99.90;;;;;;6189180;23;19924;-77
2022/09/12 01:01:43;;;;;;;;;;;13.70;99.90;;;;;;6189710;23;19922;-78
2022/09/12 01:04:14;;;;;;;;;;;13.60;99.90;;;;;;6188079;23;19920;-78
2022/09/12 01:06:43;;;;;;;;;;;13.60;99.90;;;;;;6215750;23;20310;-78
2022/09/12 01:09:14;;;;;;;;;;;13.60;99.90;;;;;;6215626;23;19948;-77
2022/09/12 01:11:45;;;;;;;;;;;13.60;99.90;;;;;;6189822;23;19966;-77
2022/09/12 01:14:11;;;;;;;;;;;13.60;99.90;;;;;;6191415;23;20319;-78
2022/09/12 01:16:37;;;;;;;;;;;13.70;99.90;;;;;;6241442;23;20242;-78
2022/09/12 01:19:02;;;;;;;;;;;13.60;99.90;;;;;;6191391;23;20003;-76
2022/09/12 01:21:35;;;;;;;;;;;13.50;99.90;;;;;;6216226;23;19920;-79
2022/09/12 01:24:23;;;;;;;;;;;13.50;99.90;;;;;;6190547;23;19916;-77
2022/09/12 01:27:07;;;;;;;;;;;13.60;99.90;;;;;;6191015;23;19916;-77
2022/09/12 01:29:46;;;;;;;;;;;13.60;99.90;;;;;;6191057;23;19915;-77
2022/09/12 01:32:20;;;;;;;;;;;13.70;99.90;;;;;;6241157;23;19915;-77
2022/09/12 01:35:07;;;;;;;;;;;13.70;99.90;;;;;;6191213;23;20246;-78
2022/09/12 01:37:45;;;;;;;;;;;13.60;99.90;;;;;;6216297;23;19966;-78
2022/09/12 01:40:15;;;;;;;;;;;13.80;99.90;;;;;;6191058;23;19920;-78
2022/09/12 01:43:00;;;;;;;;;;;13.70;99.90;;;;;;6190986;23;19974;-78
2022/09/12 01:45:40;;;;;;;;;;;13.70;99.90;;;;;;6191523;23;19998;-78
2022/09/12 01:48:08;;;;;;;;;;;13.70;99.90;;;;;;6190535;23;19923;-78
2022/09/12 01:50:41;;;;;;;;;;;13.70;99.90;;;;;;6215966;23;19999;-76
2022/09/12 01:53:15;;;;;;;;;;;13.70;99.90;;;;;;6191105;23;20002;-77
2022/09/12 01:55:58;;;;;;;;;;;13.70;99.90;;;;;;6241819;23;20323;-78
2022/09/12 01:58:31;;;;;;;;;;;13.70;99.90;;;;;;6189905;23;19990;-76
2022/09/12 02:01:09;;;;;;;;;;;13.60;99.90;;;;;;6191758;23;20242;-78
2022/09/12 02:03:43;;;;;;;;;;;13.60;99.90;;;;;;6190694;23;19916;-76
2022/09/12 02:06:19;;;;;;;;;;;13.60;99.90;;;;;;6215648;23;20319;-76
2022/09/12 02:09:07;;;;;;;;;;;13.60;99.90;;;;;;6190716;23;19916;-80
2022/09/12 02:11:36;;;;;;;;;;;13.60;99.90;;;;;;6214887;23;19982;-78
2022/09/12 02:14:05;;;;;;;;;;;13.60;99.90;;;;;;6190771;23;19916;-76
2022/09/12 02:16:35;;;;;;;;;;;13.60;99.90;;;;;;6189803;23;19971;-77
2022/09/12 02:19:13;;;;;;;;;;;13.60;99.90;;;;;;6239442;23;19916;-77
2022/09/12 02:21:44;;;;;;;;;;;13.60;99.90;;;;;;6190253;23;20001;-77
2022/09/12 02:24:16;;;;;;;;;;;13.60;99.90;;;;;;6240454;23;19915;-76
2022/09/12 02:26:56;;;;;;;;;;;13.60;99.90;;;;;;6190868;23;20254;-77
2022/09/12 02:29:25;;;;;;;;;;;13.60;99.90;;;;;;6190659;23;19916;-80
2022/09/12 02:31:57;;;;;;;;;;;13.70;99.90;;;;;;6190367;23;19916;-77
2022/09/12 02:34:45;;;;;;;;;;;13.80;99.90;;;;;;6190254;23;19916;-77
2022/09/12 02:37:24;;;;;;;;;;;13.70;99.90;;;;;;6215600;23;19974;-77
2022/09/12 02:39:54;;;;;;;;;;;13.60;99.90;;;;;;6215749;23;19923;-77
2022/09/12 02:42:20;;;;;;;;;;;13.70;99.90;;;;;;6239987;23;19916;-77
2022/09/12 02:44:46;;;;;;;;;;;13.60;99.90;;;;;;6189780;23;19920;-77
2022/09/12 02:47:21;;;;;;;;;;;13.70;99.90;;;;;;6190496;23;20345;-76
2022/09/12 02:49:46;;;;;;;;;;;13.70;99.90;;;;;;6190080;23;19916;-78
2022/09/12 02:52:12;;;;;;;;;;;13.60;99.90;;;;;;6190327;23;19987;-77
2022/09/12 02:54:38;;;;;;;;;;;13.60;99.90;;;;;;6190202;23;20300;-78
2022/09/12 02:57:15;;;;;;;;;;;13.60;99.90;;;;;;6190570;23;19924;-78
2022/09/12 02:59:47;;;;;;;;;;;13.60;99.90;;;;;;6190350;23;19924;-78
2022/09/12 03:02:26;;;;;;;;;;;13.50;99.90;;;;;;6190508;23;19916;-77
2022/09/12 03:05:04;;;;;;;;;;;13.50;99.90;;;;;;6215669;23;19923;-78
2022/09/12 03:07:45;;;;;;;;;;;13.50;99.90;;;;;;6190578;23;19916;-77
2022/09/12 03:10:11;;;;;;;;;;;13.50;99.90;;;;;;6215315;23;20037;-78
2022/09/12 03:12:59;;;;;;;;;;;13.40;99.90;;;;;;6215431;23;19916;-76
2022/09/12 03:15:44;;;;;;;;;;;13.40;99.90;;;;;;6240386;22;19916;-77
2022/09/12 03:18:21;;;;;;;;;;;13.40;99.90;;;;;;6216128;23;19966;-77
2022/09/12 03:20:54;;;;;;;;;;;13.40;99.90;;;;;;6215354;23;19916;-78
2022/09/12 03:23:30;;;;;;;;;;;13.40;99.90;;;;;;6192941;23;19916;-80
2022/09/12 03:26:02;;;;;;;;;;;13.30;99.90;;;;;;6218373;23;19935;-79
2022/09/12 03:28:34;;;;;;;;;;;13.40;99.90;;;;;;6218318;23;19916;-79
2022/09/12 03:31:17;;;;;;;;;;;13.40;99.90;;;;;;6219716;23;19911;-78
2022/09/12 03:33:45;;;;;;;;;;;13.40;99.90;;;;;;6218284;23;19908;-77
2022/09/12 03:36:24;;;;;;;;;;;13.40;99.90;;;;;;6191739;23;20381;-78
2022/09/12 03:38:50;;;;;;;;;;;13.40;99.90;;;;;;6189708;23;19916;-77
2022/09/12 03:41:19;;;;;;;;;;;13.50;99.90;;;;;;6190024;23;19916;-79
2022/09/12 03:43:55;;;;;;;;;;;;;;;;;;;;;
2022/09/12 03:46:21;;;;;;;;;;;13.60;99.90;;;;;;6239961;22;19923;-78
2022/09/12 03:48:49;;;;;;;;;;;13.60;99.90;;;;;;6188156;23;19916;-77
2022/09/12 03:51:15;;;;;;;;;;;13.70;99.90;;;;;;6189540;23;19950;-78
2022/09/12 03:53:41;;;;;;;;;;;13.60;99.90;;;;;;6213984;23;20239;-78
2022/09/12 03:56:10;;;;;;;;;;;13.70;99.90;;;;;;6189795;23;19915;-79
2022/09/12 03:58:45;;;;;;;;;;;13.80;99.90;;;;;;6190559;23;20381;-78
2022/09/12 04:01:16;;;;;;;;;;;13.90;99.90;;;;;;6190492;23;19916;-77
2022/09/12 04:03:47;;;;;;;;;;;14.00;99.90;;;;;;6189575;23;19970;-80
2022/09/12 04:06:15;;;;;;;;;;;14.00;99.90;;;;;;6214915;23;19955;-78
2022/09/12 04:08:47;;;;;;;;;;;14.00;99.90;;;;;;6190219;23;19923;-76
2022/09/12 04:11:21;;;;;;;;;;;14.00;99.90;;;;;;6190477;23;20319;-78
2022/09/12 04:13:53;;;;;;;;;;;14.00;99.90;;;;;;6189275;23;19916;-78
2022/09/12 04:16:19;;;;;;;;;;;14.00;99.90;;;;;;6189688;23;20287;-77
2022/09/12 04:18:48;;;;;;;;;;;14.00;99.90;;;;;;6189622;23;20005;-77
2022/09/12 04:21:15;;;;;;;;;;;14.10;99.90;;;;;;6189870;23;19923;-77
2022/09/12 04:23:47;;;;;;;;;;;14.00;99.90;;;;;;6189083;23;20267;-77
2022/09/12 04:26:19;;;;;;;;;;;14.00;99.90;;;;;;6240912;22;19949;-77
2022/09/12 04:28:56;;;;;;;;;;;13.90;99.90;;;;;;6265927;22;19966;-79
2022/09/12 04:31:22;;;;;;;;;;;14.00;99.90;;;;;;6188131;23;19919;-76
2022/09/12 04:33:58;;;;;;;;;;;13.80;99.90;;;;;;6214692;23;19959;-75
2022/09/12 04:36:42;;;;;;;;;;;13.80;99.90;;;;;;6265244;22;19920;-84
2022/09/12 04:39:18;;;;;;;;;;;13.80;99.90;;;;;;6240037;22;19916;-80
2022/09/12 04:41:45;;;;;;;;;;;13.80;99.90;;;;;;6190845;23;19991;-81
2022/09/12 04:44:14;;;;;;;;;;;13.80;99.90;;;;;;6241500;23;19966;-80
2022/09/12 04:46:41;;;;;;;;;;;13.90;99.90;;;;;;6190524;23;19923;-82
2022/09/12 04:49:07;;;;;;;;;;;14.00;99.90;;;;;;6191153;23;19916;-79
2022/09/12 04:51:39;;;;;;;;;;;13.90;99.90;;;;;;6190537;23;19916;-80
2022/09/12 04:54:18;;;;;;;;;;;14.00;99.90;;;;;;6191306;23;19916;-80
2022/09/12 04:56:50;;;;;;;;;;;14.00;99.90;;;;;;6240008;23;19924;-80
2022/09/12 04:59:17;;;;;;;;;;;13.90;99.90;;;;;;6188826;23;19927;-80
2022/09/12 05:02:01;;;;;;;;;;;14.00;99.90;;;;;;6189782;23;19947;-80
2022/09/12 05:04:27;;;;;;;;;;;13.90;99.90;;;;;;6190879;23;19923;-81
2022/09/12 05:06:57;;;;;;;;;;;14.00;99.90;;;;;;6190324;23;19916;-80
2022/09/12 05:09:23;;;;;;;;;;;14.10;99.90;;;;;;6243699;22;19994;-80
2022/09/12 05:12:00;;;;;;;;;;;14.10;99.90;;;;;;6193118;23;19926;-80
2022/09/12 05:14:26;;;;;;;;;;;14.10;99.90;;;;;;6215023;23;19922;-79
2022/09/12 05:16:58;;;;;;;;;;;14.10;99.90;;;;;;6191899;23;19927;-80
2022/09/12 05:19:29;;;;;;;;;;;14.10;99.90;;;;;;6241690;23;19916;-79
2022/09/12 05:22:05;;;;;;;;;;;14.10;99.90;;;;;;6191915;23;20259;-80
2022/09/12 05:24:38;;;;;;;;;;;14.40;99.90;;;;;;6215963;23;19920;-81
2022/09/12 05:27:06;;;;;;;;;;;14.10;99.90;;;;;;6191354;23;19986;-80
2022/09/12 05:29:34;;;;;;;;;;;14.20;99.90;;;;;;6191057;23;19923;-79
2022/09/12 05:32:03;;;;;;;;;;;14.20;99.90;;;;;;6242492;22;19970;-80
2022/09/12 05:34:36;;;;;;;;;;;14.20;99.90;;;;;;6267398;22;19916;-80
2022/09/12 05:37:02;;;;;;;;;;;14.20;99.90;;;;;;6191104;23;19965;-79
2022/09/12 05:39:28;;;;;;;;;;;14.20;99.90;;;;;;6215724;23;19990;-81
2022/09/12 05:42:02;;;;;;;;;;;14.10;99.90;;;;;;6191344;23;19916;-81
2022/09/12 05:44:35;;;;;;;;;;;14.20;99.90;;;;;;6190273;23;20335;-79
2022/09/12 05:47:06;;;;;;;;;;;14.20;99.90;;;;;;6191822;23;20291;-81
2022/09/12 05:49:37;;;;;;;;;;;14.10;99.90;;;;;;6191057;23;19948;-81
2022/09/12 05:52:38;;;;;;;;;;;14.10;99.90;;;;;;6191492;23;19970;-80
2022/09/12 05:55:04;;;;;;;;;;;14.30;99.90;;;;;;6240642;23;19990;-81
2022/09/12 05:57:32;;;;;;;;;;;14.20;99.90;;;;;;6241419;23;20306;-80
2022/09/12 05:59:58;;;;;;;;;;;14.20;99.90;;;;;;6190532;23;20327;-79
2022/09/12 06:02:29;;;;;;;;;;;14.20;99.90;;;;;;6191118;23;19951;-80
2022/09/12 06:05:02;;;;;;;;;;;14.30;99.90;;;;;;6190289;23;19915;-82
2022/09/12 06:07:30;;;;;;;;;;;14.30;99.90;;;;;;6190988;23;20331;-81
2022/09/12 06:09:59;;;;;;;;;;;14.40;99.90;;;;;;6189905;23;19916;-80
2022/09/12 06:12:28;;;;;;;;;;;14.40;99.90;;;;;;6214811;23;19978;-80
2022/09/12 06:14:57;;;;;;;;;;;14.40;99.90;;;;;;6190890;23;19923;-80
2022/09/12 06:17:25;;;;;;;;;;;14.40;99.90;;;;;;6214703;23;19920;-80
2022/09/12 06:20:12;;;;;;;;;;;14.50;99.90;;;;;;6241032;22;20006;-82
2022/09/12 06:22:43;;;;;;;;;;;14.60;99.90;;;;;;6191406;23;20026;-79
2022/09/12 06:25:19;;;;;;;;;;;14.50;99.90;;;;;;6216286;23;19961;-80
2022/09/12 06:27:48;;;;;;;;;;;14.50;99.90;;;;;;6241257;23;19916;-80
2022/09/12 06:30:30;;;;;;;;;;;14.60;99.90;;;;;;6192549;23;20342;-81
2022/09/12 06:33:18;;;;;;;;;;;14.60;99.90;;;;;;6191575;23;19923;-80
2022/09/12 06:35:46;;;;;;;;;;;14.70;99.90;;;;;;6241140;23;19922;-79
2022/09/12 06:38:38;;;;;;;;;;;14.70;99.90;;;;;;6241672;22;19924;-79
2022/09/12 06:41:09;;;;;;;;;;;14.70;99.90;;;;;;6190386;23;19916;-82
2022/09/12 06:44:04;;;;;;;;;;;14.70;99.90;;;;;;6191257;23;19920;-80
2022/09/12 06:46:37;;;;;;;;;;;14.70;99.90;;;;;;6191072;23;20282;-81
2022/09/12 06:49:16;;;;;;;;;;;14.80;99.90;;;;;;6190758;23;20039;-80
2022/09/12 06:51:42;;;;;;;;;;;14.70;99.90;;;;;;6243402;22;19916;-79
2022/09/12 06:54:33;;;;;;;;;;;14.80;99.90;;;;;;6190816;23;19966;-79
2022/09/12 06:56:58;;;;;;;;;;;14.80;99.90;;;;;;6266344;22;19920;-80
2022/09/12 06:59:32;;;;;;;;;;;14.90;99.90;;;;;;6215211;23;20036;-81
2022/09/12 07:02:00;;;;;;;;;;;14.90;99.90;;;;;;6240542;23;20238;-80
2022/09/12 07:04:26;;;;;;;;;;;15.00;99.90;;;;;;6240571;23;19987;-80
2022/09/12 07:06:54;;;;;;;;;;;15.00;99.90;;;;;;6215345;23;19986;-80
2022/09/12 07:09:26;;;;;;;;;;;15.00;99.90;;;;;;6240475;23;19947;-80
2022/09/12 07:11:51;;;;;;;;;;;15.10;99.90;;;;;;6188931;23;19947;-78
2022/09/12 07:14:24;;;;;;;;;;;15.10;99.90;;;;;;6265909;22;20071;-79
2022/09/12 07:16:55;;;;;;;;;;;15.20;99.90;;;;;;6189658;23;20009;-81
2022/09/12 07:19:24;;;;;;;;;;;15.40;99.90;;;;;;6240751;23;19916;-80
2022/09/12 07:21:55;;;;;;;;;;;15.40;99.90;;;;;;6190586;23;19916;-80
2022/09/12 07:24:40;;;;;;;;;;;15.50;99.90;;;;;;6189617;23;20331;-80
2022/09/12 07:27:11;;;;;;;;;;;15.60;99.90;;;;;;6190999;23;19982;-80
2022/09/12 07:30:00;;;;;;;;;;;15.70;99.90;;;;;;6189517;23;19920;-80
2022/09/12 07:32:33;;;;;;;;;;;15.80;99.90;;;;;;6239467;23;20362;-80
2022/09/12 07:35:05;;;;;;;;;;;15.80;99.90;;;;;;6189676;23;19962;-80
2022/09/12 07:37:31;;;;;;;;;;;15.90;99.90;;;;;;6190025;23;20354;-81
2022/09/12 07:40:46;;;;;;;;;;;15.90;99.90;;;;;;6190106;23;19916;-80
2022/09/12 07:46:21;;;;;;;;;;;16.10;99.90;;;;;;6157418;23;19943;-76
2022/09/12 07:48:51;;;;;;;;;;;16.20;99.90;;;;;;6228772;23;19923;-79
2022/09/12 07:51:17;;;;;;;;;;;16.30;99.90;;;;;;6188713;23;19916;-78
2022/09/12 07:53:43;;;;;;;;;;;16.30;99.90;;;;;;6213511;23;19987;-79
2022/09/12 07:56:09;;;;;;;;;;;16.40;99.90;;;;;;6188755;23;19998;-81
2022/09/12 07:58:36;;;;;;;;;;;16.60;99.90;;;;;;6188772;23;19927;-76
2022/09/12 08:01:07;;;;;;;;;;;16.70;99.90;;;;;;6238712;23;19951;-79
2022/09/12 08:03:36;;;;;;;;;;;16.80;99.90;;;;;;6188378;23;19916;-78
2022/09/12 08:06:08;;;;;;;;;;;16.90;99.90;;;;;;6188584;23;20246;-78
2022/09/12 08:08:34;;;;;;;;;;;17.00;99.90;;;;;;6238422;23;19942;-79
2022/09/12 08:11:00;;;;;;;;;;;17.10;99.90;;;;;;6188494;23;19920;-79
2022/09/12 08:13:27;;;;;;;;;;;17.20;99.90;;;;;;6188318;23;20341;-78
2022/09/12 08:15:56;;;;;;;;;;;17.30;99.90;;;;;;6238691;23;19923;-79
2022/09/12 08:18:22;;;;;;;;;;;17.40;99.90;;;;;;6213636;23;19924;-79
2022/09/12 08:20:50;;;;;;;;;;;17.50;99.90;;;;;;6238373;23;19920;-78
2022/09/12 08:23:16;;;;;;;;;;;17.50;99.90;;;;;;6188192;23;19943;-75
2022/09/12 08:35:50;;;;;;;;;;;17.80;99.90;;;;;;6215957;23;20294;-79
2022/09/12 08:56:02;;;;;;;;;;;18.30;99.90;;;;;;6127163;23;19944;-82
2022/09/12 09:09:02;;;;;;;;;;;18.90;99.90;;;;;;6268482;22;19916;-78
2022/09/12 09:11:31;;;;;;;;;;;19.10;99.90;;;;;;6193533;23;19920;-79
2022/09/12 09:16:49;;;;;;;;;;;19.30;99.90;;;;;;6245392;23;19943;-79
2022/09/12 09:19:27;;;;;;;;;;;19.40;99.90;;;;;;6268666;22;19995;-79
2022/09/12 09:21:56;;;;;;;;;;;19.60;99.90;;;;;;6193236;23;19924;-77
2022/09/12 09:24:25;;;;;;;;;;;19.80;99.90;;;;;;6245672;23;19919;-77
2022/09/12 09:26:58;;;;;;;;;;;19.90;99.90;;;;;;6193995;23;20358;-80
2022/09/12 09:29:43;;;;;;;;;;;19.90;99.90;;;;;;6271763;22;19925;-81
2022/09/12 09:32:12;;;;;;;;;;;20.00;99.90;;;;;;6195339;23;19919;-80
2022/09/12 09:34:38;;;;;;;;;;;20.00;99.90;;;;;;6216259;22;19904;-78
2022/09/12 09:37:18;;;;;;;;;;;20.10;99.90;;;;;;6223877;22;19950;-77
2022/09/12 09:40:02;;;;;;;;;;;20.40;99.90;;;;;;6248495;22;19903;-79
2022/09/12 09:42:43;;;;;;;;;;;20.60;99.90;;;;;;6223554;22;19915;-79
2022/09/12 09:45:17;;;;;;;;;;;20.90;99.90;;;;;;6287989;22;19919;-77
2022/09/12 09:54:35;;;;;;;;;;;21.10;99.90;;;;;;6183018;23;19923;-80
2022/09/12 09:57:19;;;;;;;;;;;21.20;99.90;;;;;;6150407;23;19951;-83
2022/09/12 09:59:45;;;;;;;;;;;21.40;99.90;;;;;;6163181;23;19990;-80
2022/09/12 10:02:11;;;;;;;;;;;21.60;99.90;;;;;;6178062;23;19948;-80
2022/09/12 10:04:52;;;;;;;;;;;21.70;99.90;;;;;;6264513;22;19923;-78
2022/09/12 10:07:21;;;;;;;;;;;21.90;99.90;;;;;;6240039;23;20302;-78
2022/09/12 10:10:03;;;;;;;;;;;21.90;99.90;;;;;;6164919;23;19916;-80
2022/09/12 10:12:29;;;;;;;;;;;21.90;99.90;;;;;;6189396;23;19916;-80
2022/09/12 10:14:59;;;;;;;;;;;22.10;99.90;;;;;;6189886;23;19943;-79
2022/09/12 10:17:26;;;;;;;;;;;22.00;99.90;;;;;;6189365;23;19926;-79
2022/09/12 10:19:52;;;;;;;;;;;22.20;99.90;;;;;;6215492;23;19916;-79
2022/09/12 10:22:19;;;;;;;;;;;22.30;99.90;;;;;;6191047;23;20358;-78
2022/09/12 10:24:47;;;;;;;;;;;22.30;99.90;;;;;;6166111;23;19962;-78
2022/09/12 10:27:13;;;;;;;;;;;22.40;99.90;;;;;;6190653;23;20346;-78
2022/09/12 10:29:51;;;;;;;;;;;22.40;99.90;;;;;;6240867;23;19923;-79
2022/09/12 10:32:19;;;;;;;;;;;22.40;99.90;;;;;;6190622;23;19923;-79
2022/09/12 10:34:45;;;;;;;;;;;22.40;99.90;;;;;;6241290;23;19927;-77
2022/09/12 10:37:31;;;;;;;;;;;22.50;99.90;;;;;;6190372;23;19920;-79
2022/09/12 10:40:01;;;;;;;;;;;22.40;99.90;;;;;;6215042;23;20350;-77
2022/09/12 10:42:45;;;;;;;;;;;22.50;99.90;;;;;;6215502;23;20294;-76
2022/09/12 10:45:18;;;;;;;;;;;22.60;99.90;;;;;;6241026;23;19952;-73
2022/09/12 10:47:47;;;;;;;;;;;22.70;99.90;;;;;;6240844;23;19947;-80
2022/09/12 10:50:27;;;;;;;;;;;22.80;99.90;;;;;;6215308;23;20388;-73
2022/09/12 10:52:53;;;;;;;;;;;22.90;99.90;;;;;;6215413;23;19923;-73
2022/09/12 10:55:26;;;;;;;;;;;22.90;99.90;;;;;;6217264;23;19920;-74
2022/09/12 10:57:55;;;;;;;;;;;23.00;99.90;;;;;;6215621;23;20388;-73
2022/09/12 11:00:26;;;;;;;;;;;22.90;99.90;;;;;;6240676;23;19956;-73
2022/09/12 11:03:14;;;;;;;;;;;22.70;99.90;;;;;;6216040;23;19920;-74
2022/09/12 11:06:05;;;;;;;;;;;22.50;99.90;;;;;;6241154;23;19927;-74
2022/09/12 11:08:31;;;;;;;;;;;22.40;99.90;;;;;;6237875;23;19924;-74
2022/09/12 11:11:06;;;;;;;;;;;22.50;99.90;;;;;;6215678;23;20381;-75
2022/09/12 11:13:32;;;;;;;;;;;22.70;99.90;;;;;;6217174;23;20243;-75
2022/09/12 11:16:03;;;;;;;;;;;22.90;99.90;;;;;;6215513;23;19924;-73
2022/09/12 11:18:32;;;;;;;;;;;23.00;99.90;;;;;;6214606;23;20382;-78
2022/09/12 11:21:04;;;;;;;;;;;23.10;99.90;;;;;;6190784;23;19924;-77
2022/09/12 11:23:49;;;;;;;;;;;23.20;99.90;;;;;;6190429;23;19931;-77
2022/09/12 11:26:53;;;;;;;;;;;23.10;99.90;;;;;;6240623;22;19967;-78
2022/09/12 11:29:18;;;;;;;;;;;23.10;99.90;;;;;;6207679;23;19958;-74
2022/09/12 11:34:54;;;;;;;;;;;23.20;99.90;;;;;;6266315;22;20414;-75
2022/09/12 11:37:44;;;;;;;;;;;23.30;99.90;;;;;;6215296;23;20282;-79
2022/09/12 11:40:28;;;;;;;;;;;23.40;99.90;;;;;;6240373;23;19966;-77
2022/09/12 11:42:57;;;;;;;;;;;23.30;99.90;;;;;;6240606;23;19916;-76
2022/09/12 11:45:27;;;;;;;;;;;23.20;99.90;;;;;;6215289;23;19922;-76
2022/09/12 11:47:54;;;;;;;;;;;23.20;99.90;;;;;;6240240;23;19990;-76
2022/09/12 11:50:25;;;;;;;;;;;23.20;99.90;;;;;;6240184;23;19916;-77
2022/09/12 11:52:53;;;;;;;;;;;23.20;99.90;;;;;;6190147;23;19916;-74
2022/09/12 11:55:26;;;;;;;;;;;23.20;99.90;;;;;;6240214;23;19920;-78
2022/09/12 11:57:57;;;;;;;;;;;23.30;99.90;;;;;;6215282;23;19962;-78
2022/09/12 12:00:36;;;;;;;;;;;23.30;99.90;;;;;;6219852;23;19951;-71
2022/09/12 12:03:08;;;;;;;;;;;23.20;99.90;;;;;;6219960;23;19915;-69
2022/09/12 12:05:34;;;;;;;;;;;23.30;99.90;;;;;;6194864;23;20026;-71
2022/09/12 12:08:04;;;;;;;;;;;23.20;99.90;;;;;;6219966;23;19915;-71
2022/09/12 12:10:43;;;;;;;;;;;23.30;99.90;;;;;;6245324;23;20364;-70
2022/09/12 12:13:27;;;;;;;;;;;23.30;99.90;;;;;;6194813;23;20038;-71
2022/09/12 12:15:58;;;;;;;;;;;23.40;99.90;;;;;;6194661;23;19957;-71
2022/09/12 12:18:27;;;;;;;;;;;23.40;99.90;;;;;;6219719;23;19941;-70
2022/09/12 12:20:54;;;;;;;;;;;23.40;99.90;;;;;;6246857;23;20030;-70
2022/09/12 12:23:28;;;;;;;;;;;23.40;99.90;;;;;;6194686;23;19923;-69
2022/09/12 12:25:55;;;;;;;;;;;23.50;99.90;;;;;;6220280;23;19916;-71
2022/09/12 12:28:39;;;;;;;;;;;23.50;99.90;;;;;;6195030;23;19923;-71
2022/09/12 12:31:05;;;;;;;;;;;23.40;99.90;;;;;;6220007;23;19955;-70
2022/09/12 12:33:30;;;;;;;;;;;23.40;99.90;;;;;;6194887;23;19926;-73
2022/09/12 12:35:59;;;;;;;;;;;23.30;99.90;;;;;;6219949;23;20383;-69
2022/09/12 12:38:26;;;;;;;;;;;23.40;99.90;;;;;;6219733;23;19924;-69
2022/09/12 12:40:52;;;;;;;;;;;23.40;99.90;;;;;;6246596;23;19982;-71
2022/09/12 12:43:30;;;;;;;;;;;23.40;99.90;;;;;;6194872;23;19923;-72
2022/09/12 12:46:04;;;;;;;;;;;23.40;99.90;;;;;;6194611;23;19927;-70
2022/09/12 12:48:31;;;;;;;;;;;23.30;99.90;;;;;;6219429;23;19922;-75
2022/09/12 12:51:24;;;;;;;;;;;23.20;99.90;;;;;;6219437;23;19915;-75
2022/09/12 12:53:50;;;;;;;;;;;23.20;99.90;;;;;;6194583;23;19922;-70
2022/09/12 12:56:33;;;;;;;;;;;23.10;99.90;;;;;;6195077;23;19919;-69
2022/09/12 12:59:03;;;;;;;;;;;23.10;99.90;;;;;;6219906;23;19923;-71
2022/09/12 13:01:29;;;;;;;;;;;23.10;99.90;;;;;;6240099;23;19919;-69
2022/09/12 13:03:58;;;;;;;;;;;23.10;99.90;;;;;;6191660;23;19995;-70
2022/09/12 13:06:32;;;;;;;;;;;23.10;99.90;;;;;;6267516;22;19920;-70
2022/09/12 13:09:02;;;;;;;;;;;23.30;99.90;;;;;;6242144;23;20399;-69
2022/09/12 13:11:33;;;;;;;;;;;23.20;99.90;;;;;;6216639;23;19970;-70
2022/09/12 13:14:01;;;;;;;;;;;23.30;99.90;;;;;;6241770;23;19916;-77
2022/09/12 13:16:30;;;;;;;;;;;23.40;99.90;;;;;;6216364;23;19916;-78
2022/09/12 13:18:56;;;;;;;;;;;23.40;99.90;;;;;;6216217;23;19967;-80
2022/09/12 13:21:22;;;;;;;;;;;23.50;99.90;;;;;;6216387;23;19916;-78
2022/09/12 13:24:02;;;;;;;;;;;23.40;99.90;;;;;;6216255;23;19955;-76
2022/09/12 13:26:31;;;;;;;;;;;23.30;99.90;;;;;;6216356;23;20021;-77
2022/09/12 13:29:11;;;;;;;;;;;23.40;99.90;;;;;;6216287;23;19970;-76
2022/09/12 13:31:37;;;;;;;;;;;23.50;99.90;;;;;;6191219;23;19916;-75
2022/09/12 13:34:04;;;;;;;;;;;23.50;99.90;;;;;;6241887;23;19927;-77
2022/09/12 13:36:39;;;;;;;;;;;23.60;99.90;;;;;;6190419;23;19920;-76
2022/09/12 13:39:16;;;;;;;;;;;23.50;99.90;;;;;;6191359;23;20290;-77
2022/09/12 13:41:52;;;;;;;;;;;23.50;99.90;;;;;;6190970;23;20029;-79
2022/09/12 13:44:19;;;;;;;;;;;23.50;99.90;;;;;;6191333;23;19987;-77
2022/09/12 13:46:45;;;;;;;;;;;23.60;99.90;;;;;;6241519;23;19990;-80
2022/09/12 13:49:24;;;;;;;;;;;23.60;99.90;;;;;;6216433;23;19947;-78
2022/09/12 13:52:01;;;;;;;;;;;23.50;99.90;;;;;;6241836;23;20011;-82
2022/09/12 13:54:27;;;;;;;;;;;23.50;99.90;;;;;;6216274;23;19916;-78
2022/09/12 13:56:56;;;;;;;;;;;23.50;99.90;;;;;;6190847;23;20335;-77
2022/09/12 13:59:21;;;;;;;;;;;23.50;99.90;;;;;;6215364;23;20295;-78
2022/09/12 14:01:47;;;;;;;;;;;23.50;99.90;;;;;;6215657;23;19923;-77
2022/09/12 14:06:59;;;;;;;;;;;23.40;99.90;;;;;;6241418;23;19923;-77
2022/09/12 14:09:30;;;;;;;;;;;23.50;99.90;;;;;;6190761;23;19922;-76
2022/09/12 14:11:57;;;;;;;;;;;23.50;99.90;;;;;;6190504;23;20259;-77
2022/09/12 14:14:26;;;;;;;;;;;23.50;99.90;;;;;;6190030;23;19915;-76
2022/09/12 14:16:53;;;;;;;;;;;23.50;99.90;;;;;;6190935;23;19920;-78
2022/09/12 14:19:20;;;;;;;;;;;23.50;99.90;;;;;;6190677;23;19974;-76
2022/09/12 14:21:46;;;;;;;;;;;23.50;99.90;;;;;;6215654;23;19991;-77
2022/09/12 14:24:13;;;;;;;;;;;23.50;99.90;;;;;;6266797;22;20352;-76
2022/09/12 14:26:41;;;;;;;;;;;23.60;99.90;;;;;;6241177;23;19920;-76
2022/09/12 14:29:07;;;;;;;;;;;23.50;99.90;;;;;;6240708;23;19927;-75
2022/09/12 14:31:34;;;;;;;;;;;23.50;99.90;;;;;;6216008;23;19955;-76
2022/09/12 14:34:16;;;;;;;;;;;23.60;99.90;;;;;;6190759;23;20028;-77
2022/09/12 14:36:49;;;;;;;;;;;23.60;99.90;;;;;;6241214;23;19930;-77
2022/09/12 14:39:21;;;;;;;;;;;23.60;99.90;;;;;;6215237;23;20350;-77
2022/09/12 14:41:48;;;;;;;;;;;23.60;99.90;;;;;;6190216;23;19916;-80
2022/09/12 14:44:22;;;;;;;;;;;23.70;99.90;;;;;;6215385;23;19965;-76
2022/09/12 14:46:48;;;;;;;;;;;23.80;99.90;;;;;;6190577;23;19923;-77
2022/09/12 14:49:26;;;;;;;;;;;23.80;99.90;;;;;;6215210;23;19920;-77
2022/09/12 14:51:59;;;;;;;;;;;23.80;99.90;;;;;;6190785;23;19920;-75
2022/09/12 14:54:29;;;;;;;;;;;23.70;99.90;;;;;;6241080;23;20024;-76
2022/09/12 14:56:59;;;;;;;;;;;23.70;99.90;;;;;;6190676;23;19920;-76
2022/09/12 14:59:29;;;;;;;;;;;23.60;99.90;;;;;;6215615;23;19920;-76
2022/09/12 15:02:13;;;;;;;;;;;23.60;99.90;;;;;;6189813;23;19991;-75
2022/09/12 15:04:39;;;;;;;;;;;23.40;99.90;;;;;;6189933;23;19930;-75
2022/09/12 15:07:21;;;;;;;;;;;23.40;99.90;;;;;;6215570;23;19927;-72
2022/09/12 15:09:47;;;;;;;;;;;23.30;99.90;;;;;;6190201;23;19970;-74
2022/09/12 15:15:21;;;;;;;;;;;23.20;99.90;;;;;;6215655;23;19939;-76
2022/09/12 15:17:47;;;;;;;;;;;23.10;99.90;;;;;;6215629;23;19924;-77
2022/09/12 15:20:16;;;;;;;;;;;23.10;99.90;;;;;;6215834;23;19923;-76
2022/09/12 15:22:41;;;;;;;;;;;23.10;99.90;;;;;;6190142;23;19955;-76
2022/09/12 15:25:15;;;;;;;;;;;23.10;99.90;;;;;;6215000;23;19982;-75
2022/09/12 15:27:41;;;;;;;;;;;23.00;99.90;;;;;;6215133;23;19922;-76
2022/09/12 15:30:25;;;;;;;;;;;23.00;99.90;;;;;;6240318;23;20347;-80
2022/09/12 15:32:51;;;;;;;;;;;23.10;99.90;;;;;;6215142;23;20335;-77
2022/09/12 15:35:21;;;;;;;;;;;23.00;99.90;;;;;;6189972;23;19916;-77
2022/09/12 15:37:47;;;;;;;;;;;22.90;99.90;;;;;;6214889;23;19920;-75
2022/09/12 15:40:13;;;;;;;;;;;22.80;99.90;;;;;;6240306;23;19922;-77
2022/09/12 15:42:39;;;;;;;;;;;22.70;99.90;;;;;;6240585;23;19977;-78
2022/09/12 15:45:15;;;;;;;;;;;22.70;99.90;;;;;;6240795;23;20015;-77
2022/09/12 15:47:41;;;;;;;;;;;22.50;99.90;;;;;;6240949;23;19927;-78